Time,TemperatureF,DewpointF,PressureIn,WindDirection,WindDirectionDegrees,WindSpeedMPH,WindSpeedGustMPH,Humidity,HourlyPrecipIn,Conditions,Clouds,dailyrainin,SoftwareType,DateUTC
2013-02-22 00:00:00,75.0,73.0,30.04,ESE,120,17.0,18.0,91,-99.99,,,-99.99,,2013-02-22 05:00:00,
2013-02-22 00:21:00,75.0,73.0,30.04,ESE,120,17.0,18.0,91,-99.99,,,-99.99,,2013-02-22 05:21:00,
2013-02-22 00:32:00,75.0,73.0,30.04,ESE,120,17.0,18.0,91,-99.99,,,-99.99,,2013-02-22 05:32:00,
2013-02-22 00:41:00,75.0,73.0,30.04,ESE,120,17.0,18.0,91,-99.99,,,-99.99,,2013-02-22 05:41:00,
2013-02-22 00:52:00,75.0,73.0,30.04,ESE,120,17.0,18.0,91,-99.99,,,-99.99,,2013-02-22 05:52:00,
2013-02-22 01:00:00,75.0,73.0,30.04,ESE,120,18.0,20.0,91,-99.99,,,-99.99,,2013-02-22 06:00:00,
2013-02-22 01:21:00,75.0,73.0,30.04,ESE,120,18.0,20.0,91,-99.99,,,-99.99,,2013-02-22 06:21:00,
2013-02-22 01:31:00,75.0,73.0,30.04,ESE,120,18.0,20.0,91,-99.99,,,-99.99,,2013-02-22 06:31:00,
2013-02-22 01:41:00,75.0,73.0,30.04,ESE,120,18.0,20.0,91,-99.99,,,-99.99,,2013-02-22 06:41:00,
2013-02-22 01:51:00,75.0,73.0,30.04,ESE,120,18.0,20.0,91,-99.99,,,-99.99,,2013-02-22 06:51:00,
2013-02-22 02:00:00,75.0,72.0,30.02,SE,130,20.0,21.0,90,-99.99,,,-99.99,,2013-02-22 07:00:00,
2013-02-22 02:21:00,75.0,72.0,30.02,SE,130,20.0,21.0,90,-99.99,,,-99.99,,2013-02-22 07:21:00,
2013-02-22 02:31:00,75.0,72.0,30.02,SE,130,20.0,21.0,90,-99.99,,,-99.99,,2013-02-22 07:31:00,
2013-02-22 02:42:00,75.0,72.0,30.02,SE,130,20.0,21.0,90,-99.99,,,-99.99,,2013-02-22 07:42:00,
2013-02-22 02:51:00,75.0,72.0,30.02,SE,130,20.0,21.0,90,-99.99,,,-99.99,,2013-02-22 07:51:00,
2013-02-22 03:00:00,75.0,72.0,30.01,SE,140,17.0,18.0,90,-99.99,,,-99.99,,2013-02-22 08:00:00,
2013-02-22 03:21:00,75.0,72.0,30.01,SE,140,17.0,18.0,90,-99.99,,,-99.99,,2013-02-22 08:21:00,
2013-02-22 03:31:00,75.0,72.0,30.01,SE,140,17.0,18.0,90,-99.99,,,-99.99,,2013-02-22 08:31:00,
2013-02-22 03:41:00,75.0,72.0,30.01,SE,140,17.0,18.0,90,-99.99,,,-99.99,,2013-02-22 08:41:00,
2013-02-22 03:51:00,75.0,72.0,30.01,SE,140,17.0,18.0,90,-99.99,,,-99.99,,2013-02-22 08:51:00,
2013-02-22 04:00:00,75.0,74.0,30.01,SSE,150,14.0,15.0,94,-99.99,,,-99.99,,2013-02-22 09:00:00,
2013-02-22 04:21:00,75.0,74.0,30.01,SSE,150,14.0,15.0,94,-99.99,,,-99.99,,2013-02-22 09:21:00,
2013-02-22 04:31:00,75.0,74.0,30.01,SSE,150,14.0,15.0,94,-99.99,,,-99.99,,2013-02-22 09:31:00,
2013-02-22 04:41:00,75.0,74.0,30.01,SSE,150,14.0,15.0,94,-99.99,,,-99.99,,2013-02-22 09:41:00,
2013-02-22 04:51:00,75.0,74.0,30.01,SSE,150,14.0,15.0,94,-99.99,,,-99.99,,2013-02-22 09:51:00,
2013-02-22 05:00:00,75.0,73.0,30.02,SE,140,16.0,18.0,94,-99.99,,,-99.99,,2013-02-22 10:00:00,
2013-02-22 05:21:00,75.0,73.0,30.02,SE,140,16.0,18.0,94,-99.99,,,-99.99,,2013-02-22 10:21:00,
2013-02-22 05:31:00,75.0,73.0,30.02,SE,140,16.0,18.0,94,-99.99,,,-99.99,,2013-02-22 10:31:00,
2013-02-22 05:42:00,75.0,73.0,30.02,SE,140,16.0,18.0,94,-99.99,,,-99.99,,2013-02-22 10:42:00,
2013-02-22 05:51:00,75.0,73.0,30.02,SE,140,16.0,18.0,94,-99.99,,,-99.99,,2013-02-22 10:51:00,
2013-02-22 06:00:00,75.0,72.0,30.03,SE,130,18.0,20.0,90,-99.99,,,-99.99,,2013-02-22 11:00:00,
2013-02-22 06:21:00,75.0,72.0,30.03,SE,130,18.0,20.0,90,-99.99,,,-99.99,,2013-02-22 11:21:00,
2013-02-22 06:31:00,75.0,72.0,30.03,SE,130,18.0,20.0,90,-99.99,,,-99.99,,2013-02-22 11:31:00,
2013-02-22 06:42:00,75.0,72.0,30.03,SE,130,18.0,20.0,90,-99.99,,,-99.99,,2013-02-22 11:42:00,
2013-02-22 06:52:00,75.0,72.0,30.03,SE,130,18.0,20.0,90,-99.99,,,-99.99,,2013-02-22 11:52:00,
2013-02-22 07:00:00,75.0,72.0,30.05,SE,130,20.0,21.0,90,-99.99,,,-99.99,,2013-02-22 12:00:00,
2013-02-22 07:21:00,75.0,72.0,30.05,SE,130,20.0,21.0,90,-99.99,,,-99.99,,2013-02-22 12:21:00,
2013-02-22 07:32:00,75.0,72.0,30.05,SE,130,20.0,21.0,90,-99.99,,,-99.99,,2013-02-22 12:32:00,
2013-02-22 07:42:00,75.0,72.0,30.05,SE,130,20.0,21.0,90,-99.99,,,-99.99,,2013-02-22 12:42:00,
2013-02-22 07:51:00,75.0,72.0,30.05,SE,130,20.0,21.0,90,-99.99,,,-99.99,,2013-02-22 12:51:00,
2013-02-22 08:00:00,76.0,72.0,30.08,SE,130,16.0,18.0,89,-99.99,,,-99.99,,2013-02-22 13:00:00,
2013-02-22 08:22:00,76.0,72.0,30.08,SE,130,16.0,18.0,89,-99.99,,,-99.99,,2013-02-22 13:22:00,
2013-02-22 08:31:00,76.0,72.0,30.08,SE,130,16.0,18.0,89,-99.99,,,-99.99,,2013-02-22 13:31:00,
2013-02-22 08:41:00,76.0,72.0,30.08,SE,130,16.0,18.0,89,-99.99,,,-99.99,,2013-02-22 13:41:00,
2013-02-22 08:51:00,76.0,72.0,30.08,SE,130,16.0,18.0,89,-99.99,,,-99.99,,2013-02-22 13:51:00,
2013-02-22 09:00:00,76.0,72.0,30.09,SE,140,18.0,20.0,88,-99.99,,,-99.99,,2013-02-22 14:00:00,
2013-02-22 09:21:00,76.0,72.0,30.09,SE,140,18.0,20.0,88,-99.99,,,-99.99,,2013-02-22 14:21:00,
2013-02-22 09:31:00,76.0,72.0,30.09,SE,140,18.0,20.0,88,-99.99,,,-99.99,,2013-02-22 14:31:00,
2013-02-22 09:41:00,76.0,72.0,30.09,SE,140,18.0,20.0,88,-99.99,,,-99.99,,2013-02-22 14:41:00,
2013-02-22 09:52:00,76.0,72.0,30.09,SE,140,18.0,20.0,88,-99.99,,,-99.99,,2013-02-22 14:52:00,
2013-02-22 10:00:00,77.0,73.0,30.10,SE,140,17.0,20.0,89,-99.99,,,-99.99,,2013-02-22 15:00:00,
2013-02-22 10:21:00,77.0,73.0,30.10,SE,140,17.0,20.0,89,-99.99,,,-99.99,,2013-02-22 15:21:00,
2013-02-22 10:31:00,77.0,73.0,30.10,SE,140,17.0,20.0,89,-99.99,,,-99.99,,2013-02-22 15:31:00,
2013-02-22 10:41:00,77.0,73.0,30.10,SE,140,17.0,20.0,89,-99.99,,,-99.99,,2013-02-22 15:41:00,
2013-02-22 10:51:00,77.0,73.0,30.10,SE,140,17.0,20.0,89,-99.99,,,-99.99,,2013-02-22 15:51:00,
2013-02-22 11:00:00,77.0,74.0,30.10,SE,130,17.0,18.0,92,-99.99,,,-99.99,,2013-02-22 16:00:00,
2013-02-22 11:21:00,77.0,74.0,30.10,SE,130,17.0,18.0,92,-99.99,,,-99.99,,2013-02-22 16:21:00,
2013-02-22 11:31:00,77.0,74.0,30.10,SE,130,17.0,18.0,92,-99.99,,,-99.99,,2013-02-22 16:31:00,
2013-02-22 11:41:00,77.0,74.0,30.10,SE,130,17.0,18.0,92,-99.99,,,-99.99,,2013-02-22 16:41:00,
2013-02-22 11:52:00,77.0,74.0,30.10,SE,130,17.0,18.0,92,-99.99,,,-99.99,,2013-02-22 16:52:00,
2013-02-22 12:00:00,77.0,74.0,30.09,SE,140,17.0,20.0,91,-99.99,,,-99.99,,2013-02-22 17:00:00,
2013-02-22 12:21:00,77.0,74.0,30.09,SE,140,17.0,20.0,91,-99.99,,,-99.99,,2013-02-22 17:21:00,
2013-02-22 12:31:00,77.0,74.0,30.09,SE,140,17.0,20.0,91,-99.99,,,-99.99,,2013-02-22 17:31:00,
2013-02-22 12:41:00,77.0,74.0,30.09,SE,140,17.0,20.0,91,-99.99,,,-99.99,,2013-02-22 17:41:00,
2013-02-22 12:52:00,77.0,74.0,30.09,SE,140,17.0,20.0,91,-99.99,,,-99.99,,2013-02-22 17:52:00,
2013-02-22 13:00:00,77.0,75.0,30.07,SE,130,17.0,18.0,93,-99.99,,,-99.99,,2013-02-22 18:00:00,
2013-02-22 13:22:00,77.0,75.0,30.07,SE,130,17.0,18.0,93,-99.99,,,-99.99,,2013-02-22 18:22:00,
2013-02-22 13:31:00,77.0,75.0,30.07,SE,130,17.0,18.0,93,-99.99,,,-99.99,,2013-02-22 18:31:00,
2013-02-22 13:41:00,77.0,75.0,30.07,SE,130,17.0,18.0,93,-99.99,,,-99.99,,2013-02-22 18:41:00,
2013-02-22 13:51:00,77.0,75.0,30.07,SE,130,17.0,18.0,93,-99.99,,,-99.99,,2013-02-22 18:51:00,
2013-02-22 15:00:00,78.0,76.0,30.04,SE,140,15.0,16.0,94,-99.99,,,-99.99,,2013-02-22 20:00:00,
2013-02-22 15:21:00,78.0,76.0,30.04,SE,140,15.0,16.0,94,-99.99,,,-99.99,,2013-02-22 20:21:00,
2013-02-22 15:31:00,78.0,76.0,30.04,SE,140,15.0,16.0,94,-99.99,,,-99.99,,2013-02-22 20:31:00,
2013-02-22 15:41:00,78.0,76.0,30.04,SE,140,15.0,16.0,94,-99.99,,,-99.99,,2013-02-22 20:41:00,
2013-02-22 15:51:00,78.0,76.0,30.04,SE,140,15.0,16.0,94,-99.99,,,-99.99,,2013-02-22 20:51:00,
2013-02-22 16:00:00,78.0,75.0,30.03,SE,130,18.0,20.0,93,-99.99,,,-99.99,,2013-02-22 21:00:00,
2013-02-22 16:21:00,78.0,75.0,30.03,SE,130,18.0,20.0,93,-99.99,,,-99.99,,2013-02-22 21:21:00,
2013-02-22 16:31:00,78.0,75.0,30.03,SE,130,18.0,20.0,93,-99.99,,,-99.99,,2013-02-22 21:31:00,
2013-02-22 16:41:00,78.0,75.0,30.03,SE,130,18.0,20.0,93,-99.99,,,-99.99,,2013-02-22 21:41:00,
2013-02-22 16:51:00,78.0,75.0,30.03,SE,130,18.0,20.0,93,-99.99,,,-99.99,,2013-02-22 21:51:00,
2013-02-22 17:00:00,77.0,75.0,30.03,SE,130,17.0,18.0,93,-99.99,,,-99.99,,2013-02-22 22:00:00,
2013-02-22 17:21:00,77.0,75.0,30.03,SE,130,17.0,18.0,93,-99.99,,,-99.99,,2013-02-22 22:21:00,
2013-02-22 17:31:00,77.0,75.0,30.03,SE,130,17.0,18.0,93,-99.99,,,-99.99,,2013-02-22 22:31:00,
2013-02-22 17:41:00,77.0,75.0,30.03,SE,130,17.0,18.0,93,-99.99,,,-99.99,,2013-02-22 22:41:00,
2013-02-22 17:51:00,77.0,75.0,30.03,SE,130,17.0,18.0,93,-99.99,,,-99.99,,2013-02-22 22:51:00,
2013-02-22 18:00:00,77.0,76.0,30.03,ESE,120,17.0,18.0,96,-99.99,,,-99.99,,2013-02-22 23:00:00,
2013-02-22 18:21:00,77.0,76.0,30.03,ESE,120,17.0,18.0,96,-99.99,,,-99.99,,2013-02-22 23:21:00,
2013-02-22 18:31:00,77.0,76.0,30.03,ESE,120,17.0,18.0,96,-99.99,,,-99.99,,2013-02-22 23:31:00,
2013-02-22 18:41:00,77.0,76.0,30.03,ESE,120,17.0,18.0,96,-99.99,,,-99.99,,2013-02-22 23:41:00,
2013-02-22 18:52:00,77.0,76.0,30.03,ESE,120,17.0,18.0,96,-99.99,,,-99.99,,2013-02-22 23:52:00,
2013-02-22 19:00:00,76.0,75.0,30.03,ESE,110,20.0,21.0,98,-99.99,,,-99.99,,2013-02-23 00:00:00,
2013-02-22 19:21:00,76.0,75.0,30.03,ESE,110,20.0,21.0,98,-99.99,,,-99.99,,2013-02-23 00:21:00,
2013-02-22 19:31:00,76.0,75.0,30.03,ESE,110,20.0,21.0,98,-99.99,,,-99.99,,2013-02-23 00:31:00,
2013-02-22 19:41:00,76.0,75.0,30.03,ESE,110,20.0,21.0,98,-99.99,,,-99.99,,2013-02-23 00:41:00,
2013-02-22 19:51:00,76.0,75.0,30.03,ESE,110,20.0,21.0,98,-99.99,,,-99.99,,2013-02-23 00:51:00,
2013-02-22 20:00:00,76.0,75.0,30.05,ESE,110,21.0,21.0,98,-99.99,,,-99.99,,2013-02-23 01:00:00,
2013-02-22 20:21:00,76.0,75.0,30.05,ESE,110,21.0,21.0,98,-99.99,,,-99.99,,2013-02-23 01:21:00,
2013-02-22 20:31:00,76.0,75.0,30.05,ESE,110,21.0,21.0,98,-99.99,,,-99.99,,2013-02-23 01:31:00,
2013-02-22 20:41:00,76.0,75.0,30.05,ESE,110,21.0,21.0,98,-99.99,,,-99.99,,2013-02-23 01:41:00,
2013-02-22 20:51:00,76.0,75.0,30.05,ESE,110,21.0,21.0,98,-99.99,,,-99.99,,2013-02-23 01:51:00,
2013-02-22 21:00:00,76.0,75.0,30.06,ESE,120,21.0,23.0,98,-99.99,,,-99.99,,2013-02-23 02:00:00,
2013-02-22 21:21:00,76.0,75.0,30.06,ESE,120,21.0,23.0,98,-99.99,,,-99.99,,2013-02-23 02:21:00,
2013-02-22 21:31:00,76.0,75.0,30.06,ESE,120,21.0,23.0,98,-99.99,,,-99.99,,2013-02-23 02:31:00,
2013-02-22 21:41:00,76.0,75.0,30.06,ESE,120,21.0,23.0,98,-99.99,,,-99.99,,2013-02-23 02:41:00,
2013-02-22 21:52:00,76.0,75.0,30.06,ESE,120,21.0,23.0,98,-99.99,,,-99.99,,2013-02-23 02:52:00,
2013-02-22 22:00:00,76.0,75.0,30.07,ESE,120,21.0,22.0,98,-99.99,,,-99.99,,2013-02-23 03:00:00,
2013-02-22 22:21:00,76.0,75.0,30.07,ESE,120,21.0,22.0,98,-99.99,,,-99.99,,2013-02-23 03:21:00,
2013-02-22 22:31:00,76.0,75.0,30.07,ESE,120,21.0,22.0,98,-99.99,,,-99.99,,2013-02-23 03:31:00,
2013-02-22 22:41:00,76.0,75.0,30.07,ESE,120,21.0,22.0,98,-99.99,,,-99.99,,2013-02-23 03:41:00,
2013-02-22 22:51:00,76.0,75.0,30.07,ESE,120,21.0,22.0,98,-99.99,,,-99.99,,2013-02-23 03:51:00,
2013-02-22 23:00:00,76.0,75.0,30.06,SE,130,22.0,23.0,97,-99.99,,,-99.99,,2013-02-23 04:00:00,
2013-02-22 23:21:00,76.0,75.0,30.06,SE,130,22.0,23.0,97,-99.99,,,-99.99,,2013-02-23 04:21:00,
2013-02-22 23:31:00,76.0,75.0,30.06,SE,130,22.0,23.0,97,-99.99,,,-99.99,,2013-02-23 04:31:00,
2013-02-22 23:41:00,76.0,75.0,30.06,SE,130,22.0,23.0,97,-99.99,,,-99.99,,2013-02-23 04:41:00,
2013-02-22 23:51:00,76.0,75.0,30.06,SE,130,22.0,23.0,97,-99.99,,,-99.99,,2013-02-23 04:51:00,